Time;durP1;ratioP1;P1;durP2;ratioP2;P2;SDS_P1;SDS_P2;PMS_P1;PMS_P2;Temp;Humidity;BMP_temperature;BMP_pressure;BME280_temperature;BME280_humidity;BME280_pressure;Samples;Min_cycle;Max_cycle;Signal;HPM_P1;HPM_P2
2023/01/22 00:00:26;;;;;;;11.93;8.80;;;0.90;89.60;;;;;;5051646;28;20516;-82
2023/01/22 00:02:51;;;;;;;12.05;8.85;;;0.90;89.60;;;;;;5054628;28;20044;-78
2023/01/22 00:05:17;;;;;;;12.50;8.82;;;0.80;89.60;;;;;;5038106;28;20045;-78
2023/01/22 00:07:43;;;;;;;13.07;8.93;;;0.80;89.70;;;;;;5054617;28;20047;-82
2023/01/22 00:10:10;;;;;;;12.18;8.93;;;0.80;89.70;;;;;;5054568;28;20045;-79
2023/01/22 00:12:36;;;;;;;11.63;8.40;;;0.80;89.70;;;;;;5037901;28;20056;-81
2023/01/22 00:15:01;;;;;;;12.00;8.82;;;0.80;89.70;;;;;;5054455;28;20052;-82
2023/01/22 00:17:28;;;;;;;11.73;8.00;;;0.70;89.70;;;;;;5037895;28;20068;-81
2023/01/22 00:19:54;;;;;;;13.27;8.68;;;0.80;89.60;;;;;;5037840;28;20503;-80
2023/01/22 00:22:19;;;;;;;12.05;8.63;;;0.80;89.70;;;;;;5038146;28;20080;-80
2023/01/22 00:24:45;;;;;;;13.48;8.25;;;0.80;89.70;;;;;;5037710;28;20478;-78
2023/01/22 00:27:11;;;;;;;12.48;8.80;;;0.80;89.80;;;;;;5037724;28;20040;-81
2023/01/22 00:29:36;;;;;;;11.73;8.52;;;0.80;89.80;;;;;;5037669;28;20036;-82
2023/01/22 00:32:02;;;;;;;13.20;8.20;;;0.70;89.70;;;;;;5054423;28;20039;-81
2023/01/22 00:34:28;;;;;;;11.20;7.72;;;0.70;89.80;;;;;;5037850;28;20044;-81
2023/01/22 00:36:54;;;;;;;11.77;8.45;;;0.70;89.80;;;;;;5037817;28;20052;-82
2023/01/22 00:39:19;;;;;;;14.43;8.70;;;0.70;89.80;;;;;;5037730;28;20529;-79
2023/01/22 00:41:45;;;;;;;14.57;8.77;;;0.70;89.80;;;;;;5054075;28;20076;-82
2023/01/22 00:44:11;;;;;;;12.80;9.32;;;0.70;89.90;;;;;;5054031;28;20036;-79
2023/01/22 00:46:37;;;;;;;12.07;8.10;;;0.70;89.90;;;;;;5037352;28;20037;-78
2023/01/22 00:49:02;;;;;;;12.27;8.55;;;0.70;89.80;;;;;;5054083;28;20072;-78
2023/01/22 00:51:29;;;;;;;11.45;7.85;;;0.60;89.90;;;;;;5037233;28;20055;-80
2023/01/22 00:53:55;;;;;;;10.80;7.57;;;0.60;89.90;;;;;;5053904;28;20045;-80
2023/01/22 00:56:21;;;;;;;11.88;8.35;;;0.60;89.80;;;;;;5037182;28;20102;-82
2023/01/22 00:58:46;;;;;;;10.90;7.85;;;0.60;89.90;;;;;;5053728;28;20044;-80
2023/01/22 01:01:14;;;;;;;12.45;7.97;;;0.60;89.90;;;;;;5037053;28;20036;-82
2023/01/22 01:03:40;;;;;;;10.02;7.72;;;0.60;90.00;;;;;;5053985;28;20041;-79
2023/01/22 01:06:18;;;;;;;16.75;10.65;;;0.60;90.00;;;;;;5053873;28;20090;-80
2023/01/22 01:08:45;;;;;;;10.65;8.20;;;0.50;90.00;;;;;;5037117;28;20485;-79
2023/01/22 01:11:14;;;;;;;11.55;7.53;;;0.50;90.00;;;;;;5052804;28;20124;-83
2023/01/22 01:13:41;;;;;;;10.73;7.80;;;0.50;90.00;;;;;;5053535;28;20059;-82
2023/01/22 01:16:20;;;;;;;13.70;8.50;;;0.50;90.00;;;;;;5053703;28;20370;-80
2023/01/22 01:18:46;;;;;;;10.75;7.70;;;0.50;90.10;;;;;;5053363;28;20047;-82
2023/01/22 01:21:12;;;;;;;12.68;7.78;;;0.50;90.20;;;;;;5053565;28;20032;-78
2023/01/22 01:23:38;;;;;;;11.90;7.78;;;0.50;90.20;;;;;;5036541;28;20539;-81
2023/01/22 01:26:09;;;;;;;10.07;7.82;;;0.50;90.20;;;;;;5053218;28;20516;-79
2023/01/22 01:28:35;;;;;;;11.43;7.50;;;0.40;90.20;;;;;;5053372;28;20428;-81
2023/01/22 01:31:03;;;;;;;11.27;8.23;;;0.40;90.20;;;;;;5036490;28;20060;-80
2023/01/22 01:33:29;;;;;;;10.30;7.25;;;0.40;90.20;;;;;;5053366;28;20052;-82
2023/01/22 01:36:04;;;;;;;10.93;7.70;;;0.40;90.20;;;;;;5036696;28;20481;-80
2023/01/22 01:38:30;;;;;;;12.82;7.68;;;0.30;90.30;;;;;;5052830;28;20491;-81
2023/01/22 01:40:56;;;;;;;11.00;8.02;;;0.30;90.40;;;;;;5069470;28;20044;-82
2023/01/22 01:43:22;;;;;;;11.63;7.93;;;0.40;90.40;;;;;;5036485;28;20045;-80
2023/01/22 01:45:49;;;;;;;12.18;8.27;;;0.40;90.30;;;;;;5036284;28;20382;-82
2023/01/22 01:48:33;;;;;;;11.73;8.18;;;0.40;90.30;;;;;;5052820;28;20040;-81
2023/01/22 01:51:08;;;;;;;11.73;8.00;;;0.40;90.40;;;;;;5052744;28;20037;-80
2023/01/22 01:53:34;;;;;;;11.60;7.85;;;0.30;90.50;;;;;;5036156;28;20056;-83
2023/01/22 01:56:02;;;;;;;13.00;8.80;;;0.30;90.50;;;;;;5036142;28;20041;-81
2023/01/22 01:58:32;;;;;;;10.40;7.97;;;0.30;90.40;;;;;;5019572;28;20127;-81
2023/01/22 02:01:04;;;;;;;11.73;8.02;;;0.20;90.40;;;;;;5052644;28;20048;-82
2023/01/22 02:03:30;;;;;;;11.15;7.53;;;0.20;90.40;;;;;;5052482;28;20048;-81
2023/01/22 02:05:56;;;;;;;13.13;8.02;;;0.10;90.40;;;;;;5035719;28;20037;-81
2023/01/22 02:08:22;;;;;;;13.00;8.00;;;0.10;90.50;;;;;;5036070;28;20094;-81
2023/01/22 02:10:48;;;;;;;13.90;8.40;;;0.10;90.40;;;;;;5052394;28;20055;-80
2023/01/22 02:13:21;;;;;;;11.52;7.53;;;0.10;90.50;;;;;;5035661;28;20132;-82
2023/01/22 02:15:46;;;;;;;10.18;7.40;;;0.10;90.50;;;;;;5052582;28;20067;-79
2023/01/22 02:18:12;;;;;;;11.40;8.32;;;0.10;90.50;;;;;;5035568;28;20041;-81
2023/01/22 02:20:39;;;;;;;12.23;8.32;;;0.10;90.50;;;;;;5035618;28;20075;-81
2023/01/22 02:23:06;;;;;;;13.18;8.00;;;0.00;90.40;;;;;;5051548;28;20041;-81
2023/01/22 02:25:35;;;;;;;12.13;8.00;;;0.00;90.50;;;;;;5052396;28;20076;-80
2023/01/22 02:28:00;;;;;;;10.13;7.63;;;0.00;90.60;;;;;;5052416;28;20128;-81
2023/01/22 02:30:26;;;;;;;11.82;7.80;;;0.00;90.60;;;;;;5052023;28;20516;-80
2023/01/22 02:32:52;;;;;;;11.77;8.38;;;0.00;90.60;;;;;;5052197;28;20520;-83
2023/01/22 02:35:18;;;;;;;9.88;8.05;;;0.00;90.70;;;;;;5035706;28;20041;-81
2023/01/22 02:37:43;;;;;;;9.75;7.00;;;0.00;90.80;;;;;;5035699;28;20045;-84
2023/01/22 02:40:10;;;;;;;11.52;8.07;;;0.00;90.70;;;;;;5035374;28;20132;-82
2023/01/22 02:42:35;;;;;;;11.93;7.72;;;0.00;90.80;;;;;;5068549;28;20040;-82
2023/01/22 02:45:01;;;;;;;11.50;7.35;;;0.00;90.80;;;;;;5035626;28;20123;-81
2023/01/22 02:47:27;;;;;;;13.75;7.18;;;0.10;90.90;;;;;;5035072;28;20386;-80
2023/01/22 02:49:52;;;;;;;11.60;7.60;;;0.10;91.00;;;;;;5069063;28;20033;-82
2023/01/22 02:52:18;;;;;;;12.00;8.00;;;0.10;91.10;;;;;;5051804;28;20043;-82
2023/01/22 02:54:43;;;;;;;13.75;7.63;;;0.10;91.00;;;;;;5035140;28;20041;-84
2023/01/22 02:57:09;;;;;;;11.65;8.07;;;0.20;91.20;;;;;;5035074;28;20041;-82
2023/01/22 02:59:35;;;;;;;11.80;7.85;;;0.20;91.40;;;;;;5051898;28;20052;-80
2023/01/22 03:02:00;;;;;;;12.05;8.10;;;0.30;91.20;;;;;;5035041;28;20386;-82
2023/01/22 03:04:27;;;;;;;11.88;7.38;;;0.30;91.30;;;;;;5051579;28;20080;-81
2023/01/22 03:06:53;;;;;;;13.38;8.40;;;0.30;91.30;;;;;;5035298;28;20041;-84
2023/01/22 03:09:19;;;;;;;11.13;7.45;;;0.30;91.30;;;;;;5034847;28;20465;-80
2023/01/22 03:11:45;;;;;;;11.07;6.95;;;0.30;91.30;;;;;;5034937;28;20064;-81
2023/01/22 03:22:25;;;;;;;10.73;6.60;;;0.40;91.40;;;;;;5051463;28;20048;-79
2023/01/22 03:24:51;;;;;;;8.52;6.43;;;0.50;91.40;;;;;;5051288;28;20045;-79
2023/01/22 03:27:19;;;;;;;10.70;6.60;;;0.50;91.40;;;;;;5035130;28;20401;-80
2023/01/22 03:29:45;;;;;;;9.45;5.78;;;0.60;91.40;;;;;;5051309;28;20045;-80
2023/01/22 03:32:11;;;;;;;12.18;8.02;;;0.50;91.40;;;;;;5034855;28;20045;-80
2023/01/22 03:34:37;;;;;;;10.77;6.63;;;0.60;91.40;;;;;;5052343;28;20190;-81
2023/01/22 03:37:03;;;;;;;11.65;6.80;;;0.60;91.50;;;;;;5038843;28;20045;-80
2023/01/22 03:39:30;;;;;;;9.07;6.25;;;0.70;91.20;;;;;;5038564;28;20044;-80
2023/01/22 03:41:56;;;;;;;9.60;6.10;;;0.70;91.20;;;;;;5055079;28;20537;-80
2023/01/22 03:44:22;;;;;;;10.02;6.15;;;0.80;91.40;;;;;;5038460;28;20135;-80
2023/01/22 03:46:48;;;;;;;9.98;5.60;;;0.80;91.40;;;;;;5055149;28;20047;-79
2023/01/22 03:49:14;;;;;;;11.43;5.30;;;0.80;91.30;;;;;;5038582;28;20045;-79
2023/01/22 03:51:41;;;;;;;9.93;5.53;;;0.90;91.00;;;;;;5038863;28;20041;-81
2023/01/22 03:54:12;;;;;;;7.43;5.38;;;0.90;91.10;;;;;;5057709;28;20052;-80
2023/01/22 03:56:39;;;;;;;8.13;5.53;;;1.00;91.10;;;;;;5042375;28;20055;-80
2023/01/22 03:59:04;;;;;;;11.00;5.20;;;1.00;91.10;;;;;;5041254;28;20481;-81
2023/01/22 04:01:30;;;;;;;9.27;5.30;;;1.00;91.10;;;;;;5038381;28;20045;-81
2023/01/22 04:03:56;;;;;;;10.10;5.60;;;1.10;91.00;;;;;;5054888;28;20041;-79
2023/01/22 04:06:22;;;;;;;6.18;4.63;;;1.10;91.00;;;;;;5038173;28;20040;-80
2023/01/22 04:08:50;;;;;;;9.43;5.78;;;1.10;91.00;;;;;;5054871;28;20128;-80
2023/01/22 04:11:17;;;;;;;7.72;5.07;;;1.10;91.00;;;;;;5054659;28;20072;-80
2023/01/22 04:13:44;;;;;;;7.20;4.88;;;1.10;91.10;;;;;;5038025;28;20049;-79
2023/01/22 04:16:11;;;;;;;9.93;4.70;;;1.10;91.00;;;;;;5037929;28;20058;-81
2023/01/22 04:18:38;;;;;;;7.97;5.10;;;1.20;91.00;;;;;;5038058;28;20504;-79
2023/01/22 04:21:04;;;;;;;7.82;4.93;;;1.20;90.90;;;;;;5037895;28;20041;-81
2023/01/22 04:23:30;;;;;;;11.00;5.10;;;1.20;90.90;;;;;;5037821;28;20489;-78
2023/01/22 04:25:56;;;;;;;10.15;4.57;;;1.20;90.90;;;;;;5054846;28;20036;-81
2023/01/22 04:28:22;;;;;;;8.32;4.80;;;1.20;90.80;;;;;;5037721;28;20049;-79
2023/01/22 04:30:52;;;;;;;7.03;4.63;;;1.20;90.90;;;;;;5037758;28;20408;-82
2023/01/22 04:33:18;;;;;;;5.63;4.75;;;1.20;90.80;;;;;;5054511;28;20375;-82
2023/01/22 04:35:43;;;;;;;6.72;4.35;;;1.20;90.80;;;;;;5054251;28;20135;-80
2023/01/22 04:38:12;;;;;;;8.98;4.93;;;1.20;90.80;;;;;;5037372;28;20076;-82
2023/01/22 04:40:38;;;;;;;11.52;6.20;;;1.20;90.80;;;;;;5037505;28;20194;-82
2023/01/22 04:43:05;;;;;;;8.63;5.60;;;1.20;90.80;;;;;;5053944;28;20504;-80
2023/01/22 04:45:31;;;;;;;7.95;5.43;;;1.20;90.80;;;;;;5070630;28;20568;-80
2023/01/22 04:47:57;;;;;;;8.90;5.65;;;1.20;90.80;;;;;;5053480;28;20040;-79
2023/01/22 04:50:26;;;;;;;8.63;5.57;;;1.30;90.90;;;;;;5054076;28;20397;-80
2023/01/22 04:52:53;;;;;;;7.57;5.47;;;1.30;91.00;;;;;;5037543;28;20047;-83
2023/01/22 04:55:19;;;;;;;9.90;5.10;;;1.20;90.90;;;;;;5037532;28;20041;-82
2023/01/22 04:57:45;;;;;;;12.65;6.05;;;1.30;90.90;;;;;;5053803;28;20622;-80
2023/01/22 05:00:11;;;;;;;6.95;5.75;;;1.30;90.90;;;;;;5037274;28;20041;-81
2023/01/22 05:02:38;;;;;;;9.95;6.90;;;1.30;91.00;;;;;;5053677;28;20041;-81
2023/01/22 05:05:05;;;;;;;9.10;6.10;;;1.30;91.00;;;;;;5070253;28;20049;-81
2023/01/22 05:07:31;;;;;;;7.43;5.25;;;1.30;91.00;;;;;;5036974;28;20033;-82
2023/01/22 05:09:57;;;;;;;7.63;5.38;;;1.30;91.00;;;;;;5053574;28;20428;-79
2023/01/22 05:12:22;;;;;;;7.70;5.00;;;1.30;91.00;;;;;;5037033;28;20045;-81
2023/01/22 05:14:48;;;;;;;7.15;5.13;;;1.30;91.10;;;;;;5053445;28;20519;-80
2023/01/22 05:17:14;;;;;;;9.48;5.93;;;1.30;91.10;;;;;;5037147;28;20037;-82
2023/01/22 05:19:40;;;;;;;8.05;5.22;;;1.30;91.10;;;;;;5036940;28;20095;-83
2023/01/22 05:22:06;;;;;;;7.85;5.05;;;1.40;91.10;;;;;;5070316;28;20040;-80
2023/01/22 05:24:31;;;;;;;7.75;5.60;;;1.40;91.10;;;;;;5053190;28;20037;-80
2023/01/22 05:26:57;;;;;;;10.90;5.85;;;1.40;91.20;;;;;;5036685;28;20067;-81
2023/01/22 05:29:24;;;;;;;9.93;5.45;;;1.30;91.20;;;;;;5036587;28;20132;-79
2023/01/22 05:31:54;;;;;;;7.57;4.18;;;1.30;91.20;;;;;;5037003;28;20456;-82
2023/01/22 05:34:20;;;;;;;8.00;4.40;;;1.30;91.10;;;;;;5036458;28;20045;-80
2023/01/22 05:36:46;;;;;;;8.30;4.75;;;1.40;91.10;;;;;;5036710;28;20056;-82
2023/01/22 05:39:12;;;;;;;8.48;5.07;;;1.40;91.10;;;;;;5052883;28;20524;-81
2023/01/22 05:41:38;;;;;;;6.80;5.00;;;1.40;91.10;;;;;;5053008;28;20041;-81
2023/01/22 05:44:04;;;;;;;7.03;5.00;;;1.40;91.10;;;;;;5036359;28;20099;-80
2023/01/22 05:46:31;;;;;;;12.05;5.45;;;1.50;91.10;;;;;;5053134;28;20048;-80
2023/01/22 05:48:57;;;;;;;7.60;5.60;;;1.50;91.10;;;;;;5052765;28;20037;-80
2023/01/22 05:51:24;;;;;;;10.02;5.50;;;1.50;91.10;;;;;;5036148;28;20032;-82
2023/01/22 05:53:50;;;;;;;10.75;5.55;;;1.50;91.10;;;;;;5036057;28;20045;-80
2023/01/22 05:56:17;;;;;;;9.98;5.18;;;1.40;91.10;;;;;;5036123;28;20409;-80
2023/01/22 05:58:43;;;;;;;7.65;5.55;;;1.40;91.10;;;;;;5052518;28;20044;-80
2023/01/22 06:01:09;;;;;;;8.80;5.68;;;1.50;91.10;;;;;;5052624;28;20064;-83
2023/01/22 06:03:35;;;;;;;8.38;5.50;;;1.50;91.10;;;;;;5035830;28;20041;-81
2023/01/22 06:06:06;;;;;;;8.75;6.05;;;1.50;91.10;;;;;;5019514;28;20044;-81
2023/01/22 06:08:33;;;;;;;9.57;6.60;;;1.50;91.00;;;;;;5036185;28;20389;-82
2023/01/22 06:11:04;;;;;;;7.93;5.35;;;1.50;91.00;;;;;;5035837;28;20501;-83
2023/01/22 06:13:32;;;;;;;9.95;5.88;;;1.50;91.10;;;;;;5052293;28;20139;-79
2023/01/22 06:15:59;;;;;;;8.23;5.63;;;1.40;91.00;;;;;;5036279;28;20449;-80
2023/01/22 06:18:25;;;;;;;13.05;5.40;;;1.50;91.00;;;;;;5069127;28;20111;-81
2023/01/22 06:20:51;;;;;;;8.90;6.28;;;1.50;91.10;;;;;;5035690;28;20124;-82
2023/01/22 06:23:17;;;;;;;8.27;6.05;;;1.50;91.10;;;;;;5019122;28;20437;-82
2023/01/22 06:25:43;;;;;;;8.85;5.43;;;1.50;91.10;;;;;;5035575;28;20044;-82
2023/01/22 06:28:09;;;;;;;9.07;5.15;;;1.50;91.10;;;;;;5035515;28;20040;-80
2023/01/22 06:30:36;;;;;;;6.70;5.00;;;1.40;91.00;;;;;;5035420;28;20040;-81
2023/01/22 06:33:02;;;;;;;8.88;4.93;;;1.50;91.10;;;;;;5035508;28;20132;-80
2023/01/22 06:35:28;;;;;;;7.97;4.82;;;1.50;91.10;;;;;;5035651;28;20044;-82
2023/01/22 06:37:54;;;;;;;6.50;4.70;;;1.50;91.10;;;;;;5052166;28;20481;-81
2023/01/22 06:40:19;;;;;;;11.40;5.30;;;1.50;91.10;;;;;;5019063;28;20048;-80
2023/01/22 06:42:45;;;;;;;6.45;4.45;;;1.50;91.00;;;;;;5035302;28;20037;-82
2023/01/22 06:45:11;;;;;;;6.68;4.57;;;1.50;91.10;;;;;;5034946;28;20037;-80
2023/01/22 06:47:41;;;;;;;7.35;4.68;;;1.50;91.00;;;;;;5051682;28;20067;-80
2023/01/22 06:50:08;;;;;;;8.20;5.47;;;1.50;90.90;;;;;;5019572;28;20033;-83
2023/01/22 06:52:33;;;;;;;7.47;4.80;;;1.50;91.00;;;;;;5035330;28;20128;-79
2023/01/22 06:54:59;;;;;;;5.78;4.32;;;1.50;90.90;;;;;;5035306;28;20075;-81
2023/01/22 06:57:24;;;;;;;7.10;4.00;;;1.50;90.90;;;;;;5035018;28;20048;-81
2023/01/22 06:59:50;;;;;;;7.07;4.47;;;1.40;91.00;;;;;;5051601;28;20070;-79
2023/01/22 07:02:17;;;;;;;7.78;5.10;;;1.50;91.00;;;;;;5035119;28;20064;-80
2023/01/22 07:04:44;;;;;;;5.40;4.32;;;1.50;91.00;;;;;;5051636;28;20044;-79
2023/01/22 07:07:09;;;;;;;9.90;5.55;;;1.50;91.10;;;;;;5035088;28;20041;-81
2023/01/22 07:09:35;;;;;;;6.95;4.15;;;1.50;91.10;;;;;;5037654;28;20362;-82
2023/01/22 07:12:01;;;;;;;10.15;5.65;;;1.50;91.10;;;;;;5057943;28;20378;-79
2023/01/22 07:14:27;;;;;;;7.28;5.05;;;1.50;91.00;;;;;;5041872;28;20052;-80
2023/01/22 07:16:54;;;;;;;7.53;4.85;;;1.40;91.00;;;;;;5041674;28;20055;-80
2023/01/22 07:19:20;;;;;;;7.75;5.05;;;1.40;91.00;;;;;;5041702;28;20460;-79
2023/01/22 07:21:46;;;;;;;9.50;4.95;;;1.40;91.00;;;;;;5041545;28;20128;-80
2023/01/22 07:24:12;;;;;;;6.05;4.63;;;1.40;90.90;;;;;;5058019;28;20045;-81
2023/01/22 07:26:37;;;;;;;7.95;4.95;;;1.40;91.00;;;;;;5041426;28;20041;-79
2023/01/22 07:29:04;;;;;;;9.65;4.90;;;1.40;90.90;;;;;;5041297;28;20086;-80
2023/01/22 07:31:30;;;;;;;9.30;5.10;;;1.30;90.90;;;;;;5041895;28;20067;-80
2023/01/22 07:33:55;;;;;;;7.40;4.50;;;1.40;90.90;;;;;;5025095;28;20436;-79
2023/01/22 07:36:21;;;;;;;8.05;4.78;;;1.40;91.00;;;;;;5024793;28;20449;-80
2023/01/22 07:38:47;;;;;;;7.00;4.85;;;1.40;91.00;;;;;;5041091;28;20041;-79
2023/01/22 07:41:13;;;;;;;5.43;4.47;;;1.30;90.90;;;;;;5057777;28;20181;-82
2023/01/22 07:43:39;;;;;;;9.38;5.47;;;1.40;90.90;;;;;;5057387;28;20036;-83
2023/01/22 07:46:06;;;;;;;9.38;5.22;;;1.40;91.00;;;;;;5024477;28;20426;-80
2023/01/22 07:48:32;;;;;;;10.85;5.07;;;1.40;91.00;;;;;;5041055;28;20366;-80
2023/01/22 07:50:59;;;;;;;7.25;4.30;;;1.40;91.00;;;;;;5040793;28;20037;-80
2023/01/22 07:53:25;;;;;;;6.63;3.95;;;1.40;90.90;;;;;;5057788;28;20079;-79
2023/01/22 07:55:51;;;;;;;7.20;4.53;;;1.40;90.90;;;;;;5057825;28;20045;-80
2023/01/22 07:58:17;;;;;;;7.32;4.03;;;1.40;90.90;;;;;;5041094;28;20041;-82
2023/01/22 08:00:42;;;;;;;10.80;4.32;;;1.40;90.90;;;;;;5024966;28;20052;-81
2023/01/22 08:03:13;;;;;;;6.43;3.97;;;1.40;90.90;;;;;;5041379;28;20080;-83
2023/01/22 08:05:40;;;;;;;8.23;4.20;;;1.40;91.00;;;;;;5057758;28;20120;-82
2023/01/22 08:08:19;;;;;;;6.35;4.30;;;1.40;90.80;;;;;;5041041;28;20041;-82
2023/01/22 08:10:45;;;;;;;7.03;4.10;;;1.50;90.80;;;;;;5057877;28;20566;-81
2023/01/22 08:13:12;;;;;;;6.97;4.00;;;1.50;90.90;;;;;;5024619;28;20061;-81
2023/01/22 08:15:38;;;;;;;4.95;3.58;;;1.50;90.80;;;;;;5041008;28;20106;-80
2023/01/22 08:18:03;;;;;;;6.68;4.30;;;1.50;90.80;;;;;;5046010;28;20072;-81
2023/01/22 08:20:29;;;;;;;7.97;4.25;;;1.50;90.80;;;;;;5064063;28;20037;-80
2023/01/22 08:22:59;;;;;;;5.10;3.65;;;1.50;90.90;;;;;;5048954;28;20493;-81
2023/01/22 08:25:25;;;;;;;6.82;3.95;;;1.50;90.90;;;;;;5071295;28;20516;-83
2023/01/22 08:27:51;;;;;;;4.93;3.85;;;1.60;90.90;;;;;;5054368;28;20045;-81
2023/01/22 08:30:17;;;;;;;7.70;4.53;;;1.60;91.00;;;;;;5021191;28;20048;-82
2023/01/22 08:32:44;;;;;;;7.00;4.47;;;1.60;90.90;;;;;;5054726;28;20067;-80
2023/01/22 08:35:10;;;;;;;6.20;4.13;;;1.60;90.90;;;;;;5054235;28;20040;-82
2023/01/22 08:37:36;;;;;;;8.02;4.60;;;1.60;90.90;;;;;;5054106;28;20044;-79
2023/01/22 08:40:03;;;;;;;7.38;4.35;;;1.60;90.90;;;;;;5054338;28;20041;-79
2023/01/22 08:42:29;;;;;;;8.45;4.97;;;1.60;90.90;;;;;;5054082;28;20044;-81
2023/01/22 08:44:55;;;;;;;9.30;4.18;;;1.60;90.90;;;;;;5054050;28;20091;-80
2023/01/22 08:47:20;;;;;;;8.07;4.50;;;1.60;90.90;;;;;;5053978;28;20421;-81
2023/01/22 08:49:46;;;;;;;6.72;4.00;;;1.60;90.90;;;;;;5037326;28;20033;-81
2023/01/22 08:52:12;;;;;;;9.07;4.10;;;1.60;90.90;;;;;;5054455;28;20029;-82
2023/01/22 08:54:37;;;;;;;6.55;4.30;;;1.60;90.80;;;;;;5053988;28;20085;-80
2023/01/22 08:57:03;;;;;;;7.47;4.40;;;1.60;90.80;;;;;;5054171;28;20052;-79
2023/01/22 08:59:29;;;;;;;7.40;3.83;;;1.60;90.90;;;;;;5057403;28;20045;-80
2023/01/22 09:01:59;;;;;;;7.65;4.22;;;1.60;90.90;;;;;;5055319;28;20041;-81
2023/01/22 09:04:25;;;;;;;5.85;4.05;;;1.70;90.80;;;;;;5053800;28;20049;-80
2023/01/22 09:06:51;;;;;;;10.23;4.40;;;1.60;90.50;;;;;;5053607;28;20037;-78
2023/01/22 09:09:17;;;;;;;7.38;4.38;;;1.60;90.50;;;;;;5053601;28;20068;-82
2023/01/22 09:11:43;;;;;;;5.55;3.85;;;1.70;90.70;;;;;;5053331;28;20068;-78
2023/01/22 09:14:09;;;;;;;8.55;4.40;;;1.70;90.60;;;;;;5037394;28;20398;-77
2023/01/22 09:16:36;;;;;;;9.07;4.72;;;1.70;90.70;;;;;;5070391;28;20044;-79
2023/01/22 09:19:01;;;;;;;10.23;4.82;;;1.70;90.70;;;;;;5053331;28;20041;-79
2023/01/22 09:21:27;;;;;;;8.20;4.57;;;1.70;90.60;;;;;;5053218;28;20068;-82
2023/01/22 09:23:53;;;;;;;7.38;4.78;;;1.80;90.60;;;;;;5020317;28;20045;-81
2023/01/22 09:26:19;;;;;;;8.10;4.82;;;1.80;90.50;;;;;;5053274;28;20048;-81
2023/01/22 09:28:45;;;;;;;8.65;5.13;;;1.80;90.60;;;;;;5053398;28;20033;-79
2023/01/22 09:31:14;;;;;;;7.10;4.32;;;1.90;90.60;;;;;;5053129;28;20496;-81
2023/01/22 09:33:40;;;;;;;12.73;6.30;;;1.80;90.50;;;;;;5052725;28;20044;-81
2023/01/22 09:36:14;;;;;;;10.15;5.28;;;1.90;90.50;;;;;;5053027;28;20045;-81
2023/01/22 09:38:40;;;;;;;7.45;4.75;;;1.90;90.40;;;;;;5069508;28;20037;-81
2023/01/22 09:41:33;;;;;;;7.28;5.63;;;1.90;90.40;;;;;;5052925;28;20132;-82
2023/01/22 09:44:01;;;;;;;7.15;4.95;;;1.90;90.30;;;;;;5052567;28;20053;-83
2023/01/22 09:46:33;;;;;;;8.55;5.28;;;1.90;90.40;;;;;;5052721;28;20041;-83
2023/01/22 09:49:30;;;;;;;9.25;5.50;;;1.90;90.30;;;;;;5051403;28;20045;-82
2023/01/22 09:51:59;;;;;;;7.88;5.03;;;2.00;90.40;;;;;;5068446;28;20063;-81
2023/01/22 09:54:27;;;;;;;9.85;5.18;;;2.00;90.30;;;;;;5068979;28;20057;-81
2023/01/22 09:56:56;;;;;;;6.75;4.97;;;2.00;90.40;;;;;;5052016;28;20132;-83
2023/01/22 09:59:27;;;;;;;6.38;5.75;;;2.10;90.40;;;;;;5052724;28;20076;-83
2023/01/22 10:02:00;;;;;;;6.55;5.47;;;2.10;90.40;;;;;;5052744;28;20044;-79
2023/01/22 10:04:36;;;;;;;8.35;5.75;;;2.10;90.40;;;;;;5069182;28;20037;-83
2023/01/22 10:07:06;;;;;;;9.48;5.53;;;2.10;90.40;;;;;;5069257;28;20037;-83
2023/01/22 10:09:33;;;;;;;10.75;6.22;;;2.20;90.30;;;;;;5052303;28;20045;-84
2023/01/22 10:12:07;;;;;;;7.68;5.78;;;2.20;90.30;;;;;;5052289;28;20091;-81
2023/01/22 10:14:33;;;;;;;9.93;6.13;;;2.30;90.30;;;;;;5069169;28;20055;-83
2023/01/22 10:17:02;;;;;;;9.80;6.07;;;2.30;90.20;;;;;;5052469;28;20041;-82
2023/01/22 10:19:46;;;;;;;8.10;5.95;;;2.30;90.00;;;;;;5052398;28;20319;-81
2023/01/22 10:22:24;;;;;;;8.63;6.25;;;2.30;90.20;;;;;;5052215;28;20041;-80
2023/01/22 10:24:50;;;;;;;8.45;6.05;;;2.40;90.10;;;;;;5052166;28;20037;-82
2023/01/22 10:27:21;;;;;;;8.18;6.05;;;2.30;90.00;;;;;;5052083;28;20076;-80
2023/01/22 10:30:15;;;;;;;8.15;6.00;;;2.30;89.90;;;;;;5051958;28;20033;-82
2023/01/22 10:32:41;;;;;;;8.75;5.72;;;2.40;89.80;;;;;;5052088;28;20052;-79
2023/01/22 10:35:10;;;;;;;8.52;5.80;;;2.30;90.00;;;;;;5019039;28;20040;-81
2023/01/22 10:37:51;;;;;;;9.02;7.05;;;2.40;90.00;;;;;;5052241;28;20370;-83
2023/01/22 10:40:33;;;;;;;14.75;8.45;;;2.40;90.00;;;;;;5032435;28;20576;-85
2023/01/22 10:43:11;;;;;;;8.45;6.85;;;2.40;90.00;;;;;;5037403;28;20040;-81
2023/01/22 10:45:48;;;;;;;9.13;6.85;;;2.40;90.00;;;;;;5042085;28;20035;-82
2023/01/22 10:48:15;;;;;;;8.10;6.85;;;2.50;90.00;;;;;;5042465;28;20047;-85
2023/01/22 10:50:42;;;;;;;9.25;6.82;;;2.50;90.00;;;;;;5039987;28;20037;-82
2023/01/22 10:53:22;;;;;;;9.38;6.45;;;2.50;90.00;;;;;;5039705;28;20037;-81
2023/01/22 10:55:57;;;;;;;9.02;6.75;;;2.60;90.00;;;;;;5050466;28;20550;-83
2023/01/22 10:58:26;;;;;;;9.00;7.05;;;2.60;90.00;;;;;;5051705;28;20041;-82
2023/01/22 11:01:05;;;;;;;8.00;6.68;;;2.60;90.00;;;;;;5051967;28;20397;-82
2023/01/22 11:03:36;;;;;;;9.80;6.22;;;2.70;89.90;;;;;;5051918;28;20052;-82
2023/01/22 11:06:23;;;;;;;10.02;6.57;;;2.60;89.60;;;;;;5035558;28;20036;-84
2023/01/22 11:09:14;;;;;;;7.32;5.68;;;2.70;89.80;;;;;;5052000;28;20099;-84
2023/01/22 11:11:47;;;;;;;8.13;6.53;;;2.70;89.80;;;;;;5032877;28;20051;-83
2023/01/22 11:14:16;;;;;;;8.80;6.25;;;2.70;89.70;;;;;;5051582;28;20511;-82
2023/01/22 11:16:44;;;;;;;8.05;6.07;;;2.80;89.80;;;;;;5051607;28;20041;-84
2023/01/22 11:19:13;;;;;;;6.20;5.25;;;2.80;89.80;;;;;;5031924;28;20076;-85
2023/01/22 11:21:39;;;;;;;6.00;5.38;;;2.90;89.50;;;;;;5049484;28;20037;-83
2023/01/22 11:24:23;;;;;;;7.50;5.50;;;2.90;89.40;;;;;;5050288;28;20033;-86
2023/01/22 11:27:26;;;;;;;6.75;5.15;;;2.90;89.60;;;;;;5033299;28;20510;-81
2023/01/22 11:29:52;;;;;;;6.50;5.15;;;2.90;89.40;;;;;;5049552;28;20212;-82
2023/01/22 11:32:49;;;;;;;7.97;4.88;;;2.80;89.50;;;;;;5032199;28;20048;-84
2023/01/22 11:35:30;;;;;;;7.30;4.85;;;2.80;89.10;;;;;;5023014;28;20052;-85
2023/01/22 11:38:09;;;;;;;6.28;5.38;;;2.70;89.00;;;;;;5033446;28;20040;-85
2023/01/22 11:40:58;;;;;;;10.20;5.95;;;2.70;89.20;;;;;;5032011;28;20094;-84
2023/01/22 11:44:01;;;;;;;8.60;5.40;;;2.70;89.40;;;;;;5049653;28;20049;-85
2023/01/22 11:46:42;;;;;;;5.97;4.93;;;2.70;89.40;;;;;;5049868;28;20063;-83
2023/01/22 11:49:33;;;;;;;8.38;6.03;;;2.70;89.30;;;;;;5033210;28;20053;-83
2023/01/22 11:52:16;;;;;;;8.38;5.47;;;2.80;89.40;;;;;;5032141;28;20036;-83
2023/01/22 11:54:55;;;;;;;7.88;5.93;;;2.80;89.40;;;;;;5032871;28;20088;-83
2023/01/22 11:57:32;;;;;;;9.77;5.47;;;2.80;89.20;;;;;;5053390;28;20092;-82
2023/01/22 12:00:22;;;;;;;10.05;5.32;;;2.80;89.20;;;;;;5053534;28;20381;-82
2023/01/22 12:03:13;;;;;;;7.20;4.60;;;2.80;89.10;;;;;;5036166;28;20465;-85
2023/01/22 12:06:03;;;;;;;6.80;5.32;;;2.80;88.80;;;;;;5050703;28;20144;-84
2023/01/22 12:08:47;;;;;;;7.47;5.00;;;2.80;88.70;;;;;;5036082;28;20496;-83
2023/01/22 12:11:33;;;;;;;8.50;6.05;;;2.80;88.70;;;;;;5054859;28;20056;-83
2023/01/22 12:14:30;;;;;;;8.30;5.88;;;2.80;88.60;;;;;;5053544;28;20053;-85
2023/01/22 12:17:31;;;;;;;7.53;5.45;;;2.80;88.70;;;;;;5038288;28;20098;-84
2023/01/22 12:20:16;;;;;;;8.55;5.18;;;2.90;88.80;;;;;;5054638;28;20485;-83
2023/01/22 12:23:00;;;;;;;9.60;6.05;;;2.90;88.80;;;;;;5037675;28;20396;-82
2023/01/22 12:26:00;;;;;;;9.38;5.78;;;2.90;88.70;;;;;;5037421;28;20080;-82
2023/01/22 12:28:44;;;;;;;8.85;5.55;;;2.90;88.70;;;;;;5054469;28;20036;-82
2023/01/22 12:31:20;;;;;;;9.25;5.65;;;3.00;88.70;;;;;;5054388;28;20049;-83
2023/01/22 12:33:45;;;;;;;7.72;4.68;;;3.00;88.70;;;;;;5038301;28;20051;-81
2023/01/22 12:36:17;;;;;;;7.38;5.68;;;3.10;88.80;;;;;;5021264;28;20392;-82
2023/01/22 12:38:58;;;;;;;8.13;5.72;;;3.10;88.70;;;;;;5037454;28;20028;-85
2023/01/22 12:42:07;;;;;;;8.80;6.38;;;3.10;88.60;;;;;;5054626;28;20032;-85
2023/01/22 12:44:55;;;;;;;10.93;5.70;;;3.10;88.70;;;;;;5031274;28;20505;-82
2023/01/22 12:47:35;;;;;;;6.95;5.03;;;3.10;88.70;;;;;;5054189;28;20044;-82
2023/01/22 12:50:01;;;;;;;7.88;5.82;;;3.10;88.70;;;;;;5037493;28;20044;-83
2023/01/22 12:52:35;;;;;;;9.13;6.57;;;3.10;88.60;;;;;;5037578;28;20149;-83
2023/01/22 12:55:19;;;;;;;8.88;5.93;;;3.10;88.50;;;;;;5054078;28;20045;-85
2023/01/22 12:57:45;;;;;;;8.13;6.60;;;3.20;88.60;;;;;;5054352;28;20374;-83
2023/01/22 13:00:34;;;;;;;10.32;6.43;;;3.20;88.60;;;;;;5021149;28;20071;-82
2023/01/22 13:03:21;;;;;;;8.75;6.38;;;3.20;88.60;;;;;;5020713;28;20037;-84
2023/01/22 13:05:47;;;;;;;8.68;5.72;;;3.30;88.70;;;;;;5054187;28;20114;-84
2023/01/22 13:08:15;;;;;;;10.38;6.03;;;3.30;88.70;;;;;;5036496;28;20482;-83
2023/01/22 13:10:58;;;;;;;8.70;6.38;;;3.40;88.80;;;;;;5054046;28;20103;-83
2023/01/22 13:13:45;;;;;;;9.15;6.22;;;3.40;88.80;;;;;;5037241;28;20444;-82